Time;durP1;ratioP1;P1;durP2;ratioP2;P2;SDS_P1;SDS_P2;PMS_P1;PMS_P2;Temp;Humidity;BMP_temperature;BMP_pressure;BME280_temperature;BME280_humidity;BME280_pressure;Samples;Min_cycle;Max_cycle;Signal;HPM_P1;HPM_P2
2022/02/13 00:00:44;;;;;;;1999.90;999.90;;;;;;;1.24;76.80;162728.84;5009097;28;20081;-67
2022/02/13 00:03:10;;;;;;;1999.90;999.90;;;;;;;1.46;76.00;162786.28;5008734;28;20123;-67
2022/02/13 00:05:37;;;;;;;1999.90;999.90;;;;;;;1.49;75.86;162795.91;5010159;28;20093;-67
2022/02/13 00:08:04;;;;;;;1999.90;999.90;;;;;;;1.51;76.10;162800.00;5015127;28;20439;-67
2022/02/13 00:10:30;;;;;;;1999.90;999.90;;;;;;;1.27;75.98;162737.03;5019397;28;20087;-67
2022/02/13 00:12:57;;;;;;;1999.90;999.90;;;;;;;1.32;76.25;162750.69;5015392;28;20080;-67
2022/02/13 00:15:24;;;;;;;1999.90;999.90;;;;;;;1.36;75.88;162761.66;5008662;28;20081;-67
2022/02/13 00:17:50;;;;;;;1999.90;999.90;;;;;;;1.32;76.13;162749.34;5019996;28;20100;-67
2022/02/13 00:20:22;;;;;;;;;;;;;;;1.19;76.51;162716.53;5019707;28;20393;-67
2022/02/13 00:22:48;;;;;;;1999.90;999.90;;;;;;;1.29;76.88;162741.13;5024815;28;19921;-67
2022/02/13 00:25:16;;;;;;;1999.90;999.90;;;;;;;1.11;76.95;162694.59;5019301;28;20049;-67
2022/02/13 00:27:45;;;;;;;1999.90;999.90;;;;;;;1.27;77.20;162737.03;5015853;28;20104;-67
2022/02/13 00:30:14;;;;;;;1999.90;999.90;;;;;;;1.24;77.08;162728.84;5020294;28;20526;-67
2022/02/13 00:32:43;;;;;;;1999.90;999.90;;;;;;;1.46;76.09;162787.69;5021765;28;20050;-67
2022/02/13 00:35:14;;;;;;;1999.90;999.90;;;;;;;1.54;76.11;162808.19;5025299;28;20045;-67
2022/02/13 00:37:40;;;;;;;1999.90;999.90;;;;;;;1.66;75.42;162841.03;5018502;28;20089;-67
2022/02/13 00:40:07;;;;;;;1999.90;999.90;;;;;;;1.58;75.52;162819.16;5020892;28;20139;-67
2022/02/13 00:42:34;;;;;;;1999.90;999.90;;;;;;;1.58;75.94;162819.16;5010811;28;20107;-67
2022/02/13 00:45:01;;;;;;;1999.90;999.90;;;;;;;1.31;76.18;162748.00;5019465;28;20081;-67
2022/02/13 00:47:27;;;;;;;1999.90;999.90;;;;;;;1.31;76.67;162746.59;5018120;28;20090;-67
2022/02/13 00:49:54;;;;;;;1999.90;999.90;;;;;;;1.38;76.63;162767.13;5019168;28;20125;-67
2022/02/13 00:52:20;;;;;;;1999.90;999.90;;;;;;;1.29;77.10;162742.50;5015292;28;20143;-67
2022/02/13 00:54:47;;;;;;;1999.90;999.90;;;;;;;1.32;77.47;162750.69;5010785;28;20477;-67
2022/02/13 00:57:13;;;;;;;1999.90;999.90;;;;;;;1.16;77.13;162706.91;5023973;28;20303;-67
2022/02/13 00:59:40;;;;;;;1999.90;999.90;;;;;;;1.36;76.53;162760.31;5022855;28;20334;-67
2022/02/13 01:02:06;;;;;;;1999.90;999.90;;;;;;;1.18;77.33;162712.41;5021094;28;20127;-68
2022/02/13 01:04:33;;;;;;;1999.90;999.90;;;;;;;1.17;77.14;162709.66;5018289;28;20115;-68
2022/02/13 01:06:59;;;;;;;1999.90;999.90;;;;;;;1.35;76.98;162757.56;5022588;28;20080;-68
2022/02/13 01:09:27;;;;;;;1999.90;999.90;;;;;;;1.46;76.31;162787.69;5020488;28;20187;-68
2022/02/13 01:11:53;;;;;;;1999.90;999.90;;;;;;;1.55;76.04;162812.31;5016597;28;20116;-68
2022/02/13 01:14:20;;;;;;;1999.90;999.90;;;;;;;1.48;76.18;162791.78;5014746;28;20049;-68
2022/02/13 01:16:46;;;;;;;1999.90;999.90;;;;;;;1.29;76.24;162742.50;5013668;28;20042;-68
2022/02/13 01:19:13;;;;;;;1999.90;999.90;;;;;;;1.37;76.80;162764.41;5019607;28;20275;-68
2022/02/13 01:21:39;;;;;;;1999.90;999.90;;;;;;;1.45;76.38;162784.94;5014458;28;20132;-68
2022/02/13 01:24:06;;;;;;;1999.90;999.90;;;;;;;1.64;76.07;162835.59;5020523;28;20089;-68
2022/02/13 01:26:32;;;;;;;1999.90;999.90;;;;;;;1.54;75.96;162808.19;5016689;28;20130;-68
2022/02/13 01:29:00;;;;;;;1999.90;999.90;;;;;;;1.15;76.88;162704.22;5014003;28;20127;-68
2022/02/13 01:31:27;;;;;;;1999.90;999.90;;;;;;;1.11;77.46;162694.59;5015994;28;20089;-68
2022/02/13 01:33:54;;;;;;;1999.90;999.90;;;;;;;0.89;78.63;162635.78;5020439;28;20081;-68
2022/02/13 01:36:20;;;;;;;1999.90;999.90;;;;;;;1.30;77.33;162745.25;5011710;28;20089;-68
2022/02/13 01:38:47;;;;;;;1999.90;999.90;;;;;;;0.99;78.18;162663.13;5010254;28;20092;-68
2022/02/13 01:41:14;;;;;;;1999.90;999.90;;;;;;;0.94;78.20;162649.47;5009680;28;20140;-68
2022/02/13 01:43:40;;;;;;;1999.90;999.90;;;;;;;0.92;78.65;162643.97;5018099;28;20054;-68
2022/02/13 01:46:07;;;;;;;1999.90;999.90;;;;;;;0.91;78.35;162639.88;5025429;28;20053;-68
2022/02/13 01:48:34;;;;;;;1999.90;999.90;;;;;;;0.97;79.37;162657.69;5021117;28;20045;-68
2022/02/13 01:51:00;;;;;;;1999.90;999.90;;;;;;;1.16;79.02;162706.91;5020716;28;20143;-69
2022/02/13 01:53:44;;;;;;;1999.90;999.90;;;;;;;1.34;78.07;162756.22;5023021;28;20129;-68
2022/02/13 01:56:12;;;;;;;1999.90;999.90;;;;;;;1.47;77.51;162790.38;5009800;28;20042;-68
2022/02/13 01:58:39;;;;;;;1999.90;999.90;;;;;;;1.48;78.18;162791.78;5022688;28;20108;-68
2022/02/13 02:01:05;;;;;;;1999.90;999.90;;;;;;;1.50;77.59;162798.59;5026219;28;20874;-68
2022/02/13 02:03:32;;;;;;;1999.90;999.90;;;;;;;1.74;76.81;162862.97;5019958;28;20253;-68
2022/02/13 02:05:58;;;;;;;1999.90;999.90;;;;;;;1.65;76.52;162838.28;5020199;28;20097;-68
2022/02/13 02:08:25;;;;;;;1999.90;999.90;;;;;;;1.89;76.23;162901.25;5020530;28;20088;-68
2022/02/13 02:10:52;;;;;;;1999.90;999.90;;;;;;;1.87;75.78;162895.81;5021261;28;20049;-68
2022/02/13 02:13:18;;;;;;;1999.90;999.90;;;;;;;1.64;76.30;162835.59;5019114;28;20104;-68
2022/02/13 02:15:45;;;;;;;1999.90;999.90;;;;;;;1.75;75.87;162865.66;5021990;28;20103;-68
2022/02/13 02:18:12;;;;;;;1999.90;999.90;;;;;;;1.87;75.97;162895.81;5014534;28;20042;-68
2022/02/13 02:20:39;;;;;;;1999.90;999.90;;;;;;;1.74;76.12;162861.56;5012246;28;20062;-68
2022/02/13 02:23:05;;;;;;;1999.90;999.90;;;;;;;1.47;76.94;162789.03;5023831;28;20095;-68
2022/02/13 02:25:32;;;;;;;1999.90;999.90;;;;;;;1.32;76.96;162750.69;5015657;28;20123;-68
2022/02/13 02:27:58;;;;;;;1999.90;999.90;;;;;;;1.29;77.36;162741.13;5018568;28;20454;-68
2022/02/13 02:30:25;;;;;;;1999.90;999.90;;;;;;;1.20;77.54;162719.22;5013189;28;20089;-68
2022/02/13 02:32:51;;;;;;;1999.90;999.90;;;;;;;1.09;78.24;162689.16;5009203;28;20050;-68
2022/02/13 02:35:18;;;;;;;1999.90;999.90;;;;;;;1.23;77.98;162726.06;5019776;28;20080;-68
2022/02/13 02:37:44;;;;;;;1999.90;999.90;;;;;;;1.36;77.66;162760.31;5015916;28;20046;-68
2022/02/13 02:40:11;;;;;;;1999.90;999.90;;;;;;;1.32;77.09;162749.34;5021634;28;20050;-68
2022/02/13 02:42:38;;;;;;;1999.90;999.90;;;;;;;1.16;77.71;162706.91;5008485;28;20290;-68
2022/02/13 02:45:05;;;;;;;1999.90;999.90;;;;;;;1.37;77.44;162764.41;5010946;28;20049;-67
2022/02/13 02:47:31;;;;;;;1999.90;999.90;;;;;;;1.47;76.78;162789.03;5018840;28;20103;-67
2022/02/13 02:49:58;;;;;;;1999.90;999.90;;;;;;;1.39;77.19;162768.50;5015018;28;20088;-67
2022/02/13 02:52:25;;;;;;;1999.90;999.90;;;;;;;1.43;77.00;162778.06;5012854;28;20127;-68
2022/02/13 02:54:52;;;;;;;1999.90;999.90;;;;;;;1.16;77.15;162708.31;5013699;28;20236;-67
2022/02/13 02:57:18;;;;;;;1999.90;999.90;;;;;;;1.24;77.69;162728.84;5025083;28;20119;-67
2022/02/13 02:59:45;;;;;;;1999.90;999.90;;;;;;;1.22;77.46;162724.72;5017001;28;20050;-67
2022/02/13 03:02:11;;;;;;;1999.90;999.90;;;;;;;1.37;77.14;162764.41;5012878;28;20089;-67
2022/02/13 03:04:38;;;;;;;1999.90;999.90;;;;;;;1.24;77.78;162728.84;5017765;28;20492;-67
2022/02/13 03:07:04;;;;;;;1999.90;999.90;;;;;;;1.34;77.11;162756.22;5018771;28;20094;-67
2022/02/13 03:09:31;;;;;;;1999.90;999.90;;;;;;;1.48;76.42;162791.78;5017705;28;20085;-67
2022/02/13 03:11:57;;;;;;;1999.90;999.90;;;;;;;1.29;77.24;162742.50;5019093;28;20041;-67
2022/02/13 03:14:25;;;;;;;1999.90;999.90;;;;;;;1.54;76.31;162808.19;5011168;28;20396;-67
2022/02/13 03:16:52;;;;;;;1999.90;999.90;;;;;;;1.51;76.02;162800.00;5012289;28;20084;-67
2022/02/13 03:19:19;;;;;;;1999.90;999.90;;;;;;;1.65;75.46;162836.94;5012057;28;20093;-67
2022/02/13 03:21:45;;;;;;;1999.90;999.90;;;;;;;1.35;75.71;162758.91;5014002;28;20084;-67
2022/02/13 03:24:12;;;;;;;1999.90;999.90;;;;;;;1.47;75.60;162789.03;5014777;28;20138;-68
2022/02/13 03:26:38;;;;;;;1999.90;999.90;;;;;;;1.29;76.24;162742.50;5018866;28;20535;-67
2022/02/13 03:29:05;;;;;;;1999.90;999.90;;;;;;;1.38;75.47;162765.75;5015769;28;20091;-67
2022/02/13 03:31:31;;;;;;;1999.90;999.90;;;;;;;1.53;75.07;162805.44;5011407;28;20046;-67
2022/02/13 03:33:58;;;;;;;1999.90;999.90;;;;;;;1.37;75.48;162763.00;5011896;28;20492;-67
2022/02/13 03:36:25;;;;;;;1999.90;999.90;;;;;;;1.27;75.33;162735.69;5008083;28;20045;-67
2022/02/13 03:38:51;;;;;;;1999.90;999.90;;;;;;;1.24;75.86;162728.84;5021749;28;20049;-67
2022/02/13 03:41:17;;;;;;;1999.90;999.90;;;;;;;1.01;76.42;162667.25;5015611;28;20391;-67
2022/02/13 03:43:44;;;;;;;1999.90;999.90;;;;;;;1.04;76.09;162676.84;5018023;28;20397;-67
2022/02/13 03:46:11;;;;;;;1999.90;999.90;;;;;;;1.12;75.95;162697.34;5010202;28;20050;-67
2022/02/13 03:48:37;;;;;;;1999.90;999.90;;;;;;;1.28;75.53;162738.38;5012781;28;20091;-67
2022/02/13 03:51:04;;;;;;;1999.90;999.90;;;;;;;1.41;75.49;162773.97;5019486;28;20101;-68
2022/02/13 03:53:30;;;;;;;1999.90;999.90;;;;;;;1.45;75.12;162783.59;5013361;28;20512;-67
2022/02/13 03:55:56;;;;;;;1999.90;999.90;;;;;;;1.49;74.90;162795.91;5006873;28;20124;-67
2022/02/13 03:58:23;;;;;;;1999.90;999.90;;;;;;;1.47;75.16;162790.38;5007212;28;20077;-67
2022/02/13 04:00:50;;;;;;;1999.90;999.90;;;;;;;1.18;76.31;162713.78;5018857;28;20077;-68
2022/02/13 04:03:17;;;;;;;1999.90;999.90;;;;;;;1.37;75.45;162764.41;5019543;28;20068;-68
2022/02/13 04:05:43;;;;;;;1999.90;999.90;;;;;;;1.33;75.62;162753.44;5021339;28;20049;-68
2022/02/13 04:08:10;;;;;;;1999.90;999.90;;;;;;;1.45;75.22;162784.94;5014997;28;20089;-67
2022/02/13 04:10:36;;;;;;;1999.90;999.90;;;;;;;1.42;75.34;162776.72;5011927;28;20398;-67
2022/02/13 04:13:02;;;;;;;1999.90;999.90;;;;;;;1.36;75.51;162760.31;5018460;28;20509;-67
2022/02/13 04:15:29;;;;;;;1999.90;999.90;;;;;;;1.28;75.86;162739.78;5015371;28;20096;-68
2022/02/13 04:17:55;;;;;;;1999.90;999.90;;;;;;;1.23;76.13;162727.44;5014308;28;20232;-68
2022/02/13 04:20:22;;;;;;;1999.90;999.90;;;;;;;1.21;76.85;162720.63;5013070;28;20144;-68
2022/02/13 04:22:49;;;;;;;1999.90;999.90;;;;;;;1.25;76.65;162731.59;5018709;28;20529;-68
2022/02/13 04:25:17;;;;;;;1999.90;999.90;;;;;;;1.29;76.67;162742.50;5016123;28;20045;-68
2022/02/13 04:27:44;;;;;;;1999.90;999.90;;;;;;;1.37;75.97;162763.00;5010088;28;20049;-67
2022/02/13 04:30:10;;;;;;;1999.90;999.90;;;;;;;1.33;75.96;162753.44;5016400;28;20072;-68
2022/02/13 04:32:38;;;;;;;1999.90;999.90;;;;;;;1.13;76.54;162698.72;5020608;28;20057;-68
2022/02/13 04:35:04;;;;;;;1999.90;999.90;;;;;;;0.89;78.26;162635.78;5020778;28;20111;-68
2022/02/13 04:37:31;;;;;;;1999.90;999.90;;;;;;;1.05;77.67;162679.53;5018518;28;20044;-68
2022/02/13 04:39:57;;;;;;;1999.90;999.90;;;;;;;1.00;78.13;162665.88;5012072;28;20120;-68
2022/02/13 04:42:24;;;;;;;1999.90;999.90;;;;;;;0.91;78.95;162641.28;5018909;28;20077;-68
2022/02/13 04:44:50;;;;;;;1999.90;999.90;;;;;;;1.13;78.25;162698.72;5016477;28;20089;-68
2022/02/13 04:47:17;;;;;;;1999.90;999.90;;;;;;;1.08;78.47;162685.06;5022345;28;20084;-68
2022/02/13 04:49:43;;;;;;;1999.90;999.90;;;;;;;0.98;78.83;162660.44;5021350;28;20092;-68
2022/02/13 04:52:10;;;;;;;1999.90;999.90;;;;;;;0.68;80.39;162579.69;5014985;28;20498;-68
2022/02/13 04:54:36;;;;;;;1999.90;999.90;;;;;;;0.98;79.49;162660.44;5015844;28;20050;-68
2022/02/13 04:57:03;;;;;;;1999.90;999.90;;;;;;;0.79;80.11;162608.41;5020213;28;20054;-68
2022/02/13 04:59:35;;;;;;;1999.90;999.90;;;;;;;0.59;81.33;162556.44;5024772;28;20115;-68
2022/02/13 05:02:01;;;;;;;1999.90;999.90;;;;;;;0.96;79.97;162653.56;5028706;28;20080;-68
2022/02/13 05:04:30;;;;;;;1999.90;999.90;;;;;;;0.74;81.66;162594.75;5014001;28;20061;-68
2022/02/13 05:06:56;;;;;;;1999.90;999.90;;;;;;;0.71;81.75;162587.91;5021660;28;20049;-68
2022/02/13 05:09:23;;;;;;;1999.90;999.90;;;;;;;0.60;82.18;162559.19;5022186;28;20093;-68
2022/02/13 05:11:49;;;;;;;1999.90;999.90;;;;;;;0.60;82.75;162559.19;5016444;28;20093;-68
2022/02/13 05:14:16;;;;;;;1999.90;999.90;;;;;;;0.84;81.99;162622.09;5024309;28;20049;-68
2022/02/13 05:16:43;;;;;;;1999.90;999.90;;;;;;;0.92;82.35;162643.97;5018680;28;20398;-68
2022/02/13 05:19:10;;;;;;;1999.90;999.90;;;;;;;0.98;81.54;162659.03;5018859;28;20081;-68
2022/02/13 05:21:36;;;;;;;1999.90;999.90;;;;;;;1.01;81.62;162668.63;5013392;28;20073;-68
2022/02/13 05:24:03;;;;;;;1999.90;999.90;;;;;;;1.18;80.97;162713.78;5009565;28;20050;-68
2022/02/13 05:26:29;;;;;;;1999.90;999.90;;;;;;;0.76;82.83;162601.59;5012417;28;20096;-68
2022/02/13 05:28:56;;;;;;;1999.90;999.90;;;;;;;0.70;83.80;162586.53;5023718;28;20134;-68
2022/02/13 05:31:26;;;;;;;1999.90;999.90;;;;;;;0.97;82.70;162657.69;5015901;28;20519;-68
2022/02/13 05:33:52;;;;;;;1999.90;999.90;;;;;;;1.00;82.21;162665.88;5014400;28;20123;-68
2022/02/13 05:36:19;;;;;;;1999.90;999.90;;;;;;;1.02;82.12;162671.34;5012417;28;20058;-68
2022/02/13 05:38:45;;;;;;;1999.90;999.90;;;;;;;0.75;83.01;162597.50;5012238;28;20103;-68
2022/02/13 05:41:12;;;;;;;1999.90;999.90;;;;;;;0.30;84.83;162478.53;5014268;28;20139;-68
2022/02/13 05:43:40;;;;;;;1999.90;999.90;;;;;;;0.55;84.25;162545.47;5019262;28;20217;-68
2022/02/13 05:46:06;;;;;;;1999.90;999.90;;;;;;;0.33;85.55;162486.72;5012191;28;20077;-68
2022/02/13 05:48:33;;;;;;;1999.90;999.90;;;;;;;0.54;84.58;162542.78;5014193;28;20194;-68
2022/02/13 05:50:59;;;;;;;1999.90;999.90;;;;;;;0.47;84.85;162524.97;5009560;28;20095;-68
2022/02/13 05:53:25;;;;;;;1999.90;999.90;;;;;;;0.55;84.40;162545.47;5021665;28;20077;-68
2022/02/13 05:55:52;;;;;;;1999.90;999.90;;;;;;;0.72;83.65;162590.66;5018175;28;20085;-68
2022/02/13 05:58:19;;;;;;;1999.90;999.90;;;;;;;0.56;83.74;162546.88;5015906;28;20083;-68
2022/02/13 06:00:45;;;;;;;1999.90;999.90;;;;;;;0.80;83.72;162611.16;5022729;28;20128;-68
2022/02/13 06:03:12;;;;;;;1999.90;999.90;;;;;;;0.50;83.84;162531.81;5020196;28;20045;-67
2022/02/13 06:05:39;;;;;;;1999.90;999.90;;;;;;;0.60;84.35;162559.19;5016768;28;20515;-68
2022/02/13 06:08:05;;;;;;;1999.90;999.90;;;;;;;0.61;83.99;162561.94;5016197;28;20038;-67
2022/02/13 06:10:32;;;;;;;1999.90;999.90;;;;;;;0.50;84.48;162531.81;5013825;28;20107;-68
2022/02/13 06:12:59;;;;;;;1999.90;999.90;;;;;;;0.40;84.80;162504.47;5025228;28;20158;-67
2022/02/13 06:15:25;;;;;;;1999.90;999.90;;;;;;;0.25;85.11;162466.16;5017897;28;20155;-68
2022/02/13 06:17:52;;;;;;;1999.90;999.90;;;;;;;0.09;86.02;162423.81;5014017;28;20104;-67
2022/02/13 06:20:18;;;;;;;1999.90;999.90;;;;;;;0.24;85.47;162463.47;5017299;28;20322;-68
2022/02/13 06:22:44;;;;;;;1999.90;999.90;;;;;;;0.13;85.63;162434.72;5022659;28;20111;-67
2022/02/13 06:25:11;;;;;;;1999.90;999.90;;;;;;;0.55;84.21;162544.13;5021141;28;20396;-68
2022/02/13 06:27:37;;;;;;;1999.90;999.90;;;;;;;0.43;84.62;162512.66;5014135;28;20096;-68
2022/02/13 06:30:04;;;;;;;1999.90;999.90;;;;;;;0.56;83.86;162546.88;5011771;28;20050;-67
2022/02/13 06:32:31;;;;;;;1999.90;999.90;;;;;;;0.78;83.50;162605.69;5016452;28;20855;-67
2022/02/13 06:34:57;;;;;;;1999.90;999.90;;;;;;;0.61;83.45;162561.94;5013986;28;20403;-68
2022/02/13 06:37:24;;;;;;;1999.90;999.90;;;;;;;0.39;84.70;162501.72;5014065;28;20127;-67
2022/02/13 06:39:50;;;;;;;1999.90;999.90;;;;;;;0.32;84.70;162483.97;5020701;28;20083;-67
2022/02/13 06:42:17;;;;;;;1999.90;999.90;;;;;;;0.30;85.06;162479.88;5010198;28;20085;-67
2022/02/13 06:44:43;;;;;;;1999.90;999.90;;;;;;;0.56;83.60;162548.22;5020042;28;20107;-67
2022/02/13 06:47:10;;;;;;;1999.90;999.90;;;;;;;0.62;84.61;162564.63;5015571;28;20049;-67
2022/02/13 06:49:36;;;;;;;1999.90;999.90;;;;;;;1.10;82.46;162691.84;5012209;28;20069;-67
2022/02/13 06:52:03;;;;;;;1999.90;999.90;;;;;;;0.79;82.25;162609.81;5019888;28;20128;-67
2022/02/13 06:54:29;;;;;;;1999.90;999.90;;;;;;;0.39;83.32;162503.13;5012716;28;20061;-68
2022/02/13 06:56:56;;;;;;;1999.90;999.90;;;;;;;0.63;83.24;162567.38;5019678;28;20107;-68
2022/02/13 06:59:22;;;;;;;1999.90;999.90;;;;;;;0.74;83.00;162594.75;5010674;28;20095;-67
2022/02/13 07:01:49;;;;;;;1999.90;999.90;;;;;;;0.60;83.10;162559.19;5010915;28;20089;-67
2022/02/13 07:04:16;;;;;;;1999.90;999.90;;;;;;;0.63;83.10;162566.03;5018593;28;20073;-67
2022/02/13 07:06:42;;;;;;;1999.90;999.90;;;;;;;0.61;83.02;162561.94;5021719;28;20393;-67
2022/02/13 07:09:09;;;;;;;1999.90;999.90;;;;;;;0.64;83.06;162570.13;5017524;28;20097;-67
2022/02/13 07:11:35;;;;;;;1999.90;999.90;;;;;;;0.59;83.07;162555.09;5015839;28;20107;-67
2022/02/13 07:14:02;;;;;;;1999.90;999.90;;;;;;;1.03;82.83;162672.75;5019694;28;20085;-67
2022/02/13 07:16:29;;;;;;;1999.90;999.90;;;;;;;0.90;81.85;162637.16;5018992;28;20072;-67
2022/02/13 07:18:57;;;;;;;1999.90;999.90;;;;;;;0.83;81.98;162619.34;5008649;28;20125;-67
2022/02/13 07:21:23;;;;;;;1999.90;999.90;;;;;;;0.62;82.76;162564.63;5020533;28;20085;-68
2022/02/13 07:23:50;;;;;;;1999.90;999.90;;;;;;;0.66;82.51;162575.59;5012075;28;20085;-67
2022/02/13 07:26:16;;;;;;;1999.90;999.90;;;;;;;0.76;82.27;162601.59;5010765;28;20057;-68
2022/02/13 07:29:01;;;;;;;1999.90;999.90;;;;;;;0.80;82.01;162611.16;5012497;28;20054;-67
2022/02/13 07:31:29;;;;;;;1999.90;999.90;;;;;;;1.15;81.79;162705.56;5011356;28;20402;-67
2022/02/13 07:33:56;;;;;;;1999.90;999.90;;;;;;;0.97;81.23;162657.69;5013806;28;20046;-67
2022/02/13 07:36:24;;;;;;;1999.90;999.90;;;;;;;1.06;80.69;162680.94;5015684;28;20049;-67
2022/02/13 07:38:50;;;;;;;1999.90;999.90;;;;;;;0.99;81.69;162661.78;5024029;28;20045;-67
2022/02/13 07:41:18;;;;;;;1999.90;999.90;;;;;;;1.32;80.08;162750.69;5013073;28;20394;-68
2022/02/13 07:43:44;;;;;;;1999.90;999.90;;;;;;;0.97;80.64;162656.28;5022662;28;20115;-67
2022/02/13 07:46:11;;;;;;;1999.90;999.90;;;;;;;1.08;79.64;162686.41;5013449;28;20045;-68
2022/02/13 07:48:37;;;;;;;1999.90;999.90;;;;;;;1.03;80.33;162672.75;5015695;28;20045;-68
2022/02/13 07:51:04;;;;;;;1999.90;999.90;;;;;;;1.32;80.86;162750.69;5016111;28;20086;-67
2022/02/13 07:53:31;;;;;;;1999.90;999.90;;;;;;;1.75;79.11;162865.66;5022824;28;20046;-68
2022/02/13 07:55:57;;;;;;;1999.90;999.90;;;;;;;1.61;78.16;162827.38;5015754;28;20058;-68
2022/02/13 07:58:24;;;;;;;1999.90;999.90;;;;;;;1.58;78.36;162819.16;5013700;28;20073;-68
2022/02/13 08:00:50;;;;;;;1999.90;999.90;;;;;;;1.58;78.84;162820.50;5016754;28;20085;-68
2022/02/13 08:03:17;;;;;;;1999.90;999.90;;;;;;;1.79;77.55;162873.88;5027622;28;20083;-68
2022/02/13 08:05:44;;;;;;;1999.90;999.90;;;;;;;1.79;77.16;162873.88;5018417;28;20062;-68
2022/02/13 08:08:12;;;;;;;1999.90;999.90;;;;;;;1.88;76.92;162898.56;5015996;28;20050;-68
2022/02/13 08:10:40;;;;;;;1999.90;999.90;;;;;;;2.08;76.86;162953.31;5013227;28;20061;-68
2022/02/13 08:13:06;;;;;;;1999.90;999.90;;;;;;;1.96;75.32;162920.44;5023646;28;20172;-67
2022/02/13 08:15:33;;;;;;;1999.90;999.90;;;;;;;1.79;76.66;162873.88;5018570;28;20306;-68
2022/02/13 08:18:11;;;;;;;1999.90;999.90;;;;;;;2.13;75.79;162965.66;5018141;28;20115;-69
2022/02/13 08:20:38;;;;;;;1999.90;999.90;;;;;;;1.99;75.59;162928.66;5021737;28;20060;-69
2022/02/13 08:23:06;;;;;;;1999.90;999.90;;;;;;;2.20;75.73;162983.41;5014268;28;20474;-68
2022/02/13 08:25:32;;;;;;;1999.90;999.90;;;;;;;1.99;75.70;162927.28;5022972;28;20405;-69
2022/02/13 08:27:59;;;;;;;1999.90;999.90;;;;;;;2.36;74.94;163027.25;5024033;28;20084;-68
2022/02/13 08:30:26;;;;;;;1999.90;999.90;;;;;;;2.14;75.50;162968.34;5024923;28;20096;-68
2022/02/13 08:32:53;;;;;;;1999.90;999.90;;;;;;;2.80;74.50;163145.06;5027360;28;20081;-68
2022/02/13 08:35:21;;;;;;;1999.90;999.90;;;;;;;2.71;73.39;163120.41;5023018;28;20049;-68
2022/02/13 08:37:48;;;;;;;1999.90;999.90;;;;;;;2.59;73.42;163088.91;5011736;28;20054;-69
2022/02/13 08:40:14;;;;;;;1999.90;999.90;;;;;;;2.60;74.02;163091.59;5014638;28;20053;-68
2022/02/13 08:42:41;;;;;;;1999.90;999.90;;;;;;;2.88;72.31;163164.25;5016796;28;20084;-69
2022/02/13 08:45:08;;;;;;;1999.90;999.90;;;;;;;2.71;73.17;163120.41;5016537;28;20144;-68
2022/02/13 08:47:34;;;;;;;1999.90;999.90;;;;;;;3.10;71.91;163223.16;5015411;28;20049;-68
2022/02/13 08:50:01;;;;;;;1999.90;999.90;;;;;;;2.89;73.05;163166.94;5021009;28;20050;-68
2022/02/13 08:52:27;;;;;;;1999.90;999.90;;;;;;;3.63;70.42;163365.69;5012323;28;20505;-69
2022/02/13 08:54:54;;;;;;;1999.90;999.90;;;;;;;3.57;71.12;163347.84;5013023;28;20444;-67
2022/02/13 08:57:20;;;;;;;1999.90;999.90;;;;;;;3.38;70.39;163298.53;5019609;28;20402;-67
2022/02/13 08:59:47;;;;;;;1999.90;999.90;;;;;;;3.30;69.88;163276.56;5023815;28;20177;-67
2022/02/13 09:02:15;;;;;;;1999.90;999.90;;;;;;;2.98;71.75;163191.66;5019344;28;20152;-67
2022/02/13 09:04:42;;;;;;;1999.90;999.90;;;;;;;3.42;70.99;163308.09;5015104;28;20065;-67
2022/02/13 09:07:10;;;;;;;1999.90;999.90;;;;;;;3.58;69.90;163350.59;5011000;28;20054;-66
2022/02/13 09:09:36;;;;;;;1999.90;999.90;;;;;;;3.37;69.81;163295.78;5021524;28;20073;-68
2022/02/13 09:12:03;;;;;;;1999.90;999.90;;;;;;;3.22;70.79;163256.03;5022855;28;20041;-68
2022/02/13 09:14:30;;;;;;;1999.90;999.90;;;;;;;3.64;70.49;163367.03;5026362;28;20046;-68
2022/02/13 09:16:56;;;;;;;1999.90;999.90;;;;;;;3.50;70.45;163331.41;5049885;28;20398;-67
2022/02/13 09:19:23;;;;;;;1999.90;999.90;;;;;;;3.27;70.10;163268.38;5011025;28;20053;-67
2022/02/13 09:21:52;;;;;;;1999.90;999.90;;;;;;;3.34;71.08;163288.91;5020371;28;20126;-67
2022/02/13 09:24:22;;;;;;;1999.90;999.90;;;;;;;3.90;69.35;163435.56;5017674;28;20050;-67
2022/02/13 09:26:48;;;;;;;1999.90;999.90;;;;;;;3.62;69.08;163361.59;5021611;28;20085;-68
2022/02/13 09:29:17;;;;;;;1999.90;999.90;;;;;;;3.68;70.05;163378.03;5017252;28;20449;-67
2022/02/13 09:31:43;;;;;;;1999.90;999.90;;;;;;;3.67;69.16;163375.28;5026587;28;20095;-67
2022/02/13 09:34:12;;;;;;;1999.90;999.90;;;;;;;3.64;69.52;163367.03;5016835;28;20088;-67
2022/02/13 09:36:40;;;;;;;1999.90;999.90;;;;;;;4.07;68.32;163482.22;5013301;28;20056;-67
2022/02/13 09:39:06;;;;;;;1999.90;999.90;;;;;;;3.78;68.68;163405.44;5045398;28;20092;-67
2022/02/13 09:41:33;;;;;;;1999.90;999.90;;;;;;;3.66;68.64;163372.50;5012345;28;20568;-67
2022/02/13 09:43:59;;;;;;;1999.90;999.90;;;;;;;3.78;68.56;163405.44;5020628;28;20468;-67
2022/02/13 09:46:28;;;;;;;1999.90;999.90;;;;;;;3.49;68.76;163328.66;5019563;28;20140;-67
2022/02/13 09:48:55;;;;;;;1999.90;999.90;;;;;;;3.75;68.59;163397.22;5017543;28;20045;-68
2022/02/13 09:51:21;;;;;;;1999.90;999.90;;;;;;;4.28;67.52;163538.41;5014359;28;20045;-68
2022/02/13 09:53:48;;;;;;;1999.90;999.90;;;;;;;4.56;67.12;163613.84;5017934;28;20104;-67
2022/02/13 09:56:15;;;;;;;1999.90;999.90;;;;;;;4.59;66.31;163622.06;5020481;28;20101;-67
2022/02/13 09:58:41;;;;;;;1999.90;999.90;;;;;;;4.91;66.12;163707.16;5013464;28;20085;-67
2022/02/13 10:01:10;;;;;;;1999.90;999.90;;;;;;;5.00;64.91;163729.09;5021706;28;20122;-67
2022/02/13 10:03:39;;;;;;;1999.90;999.90;;;;;;;5.17;64.45;163774.41;5019256;28;20057;-67
2022/02/13 10:06:12;;;;;;;1999.90;999.90;;;;;;;4.84;64.88;163687.94;5015301;28;20111;-67
2022/02/13 10:08:46;;;;;;;1999.90;999.90;;;;;;;4.82;63.54;163682.44;5017585;28;20053;-67
2022/02/13 10:11:19;;;;;;;1999.90;999.90;;;;;;;4.94;64.45;163715.38;5016054;28;20049;-67
2022/02/13 10:14:04;;;;;;;1999.90;999.90;;;;;;;4.70;64.05;163649.50;5023343;28;20165;-67
2022/02/13 10:16:33;;;;;;;1999.90;999.90;;;;;;;5.02;65.47;163734.59;5021045;28;20077;-67
2022/02/13 10:19:10;;;;;;;1999.90;999.90;;;;;;;5.16;62.74;163773.00;5019799;28;20038;-68
2022/02/13 10:21:39;;;;;;;1999.90;999.90;;;;;;;4.91;62.58;163707.16;5013296;28;20077;-67
2022/02/13 10:24:25;;;;;;;1999.90;999.90;;;;;;;4.69;62.82;163646.75;5014176;28;20089;-67
2022/02/13 10:26:57;;;;;;;1999.90;999.90;;;;;;;4.64;63.75;163633.06;5018949;28;20591;-67
2022/02/13 10:29:29;;;;;;;1999.90;999.90;;;;;;;4.77;63.22;163668.72;5022343;28;20129;-67
2022/02/13 10:32:19;;;;;;;1999.90;999.90;;;;;;;5.05;62.25;163742.84;5016284;28;20251;-68
2022/02/13 10:35:22;;;;;;;1999.90;999.90;;;;;;;5.18;61.49;163778.50;5015729;28;20049;-67
2022/02/13 10:37:55;;;;;;;1999.90;999.90;;;;;;;5.97;59.92;163988.59;4993621;28;20042;-67
2022/02/13 10:40:24;;;;;;;1999.90;999.90;;;;;;;5.74;59.07;163926.72;5017266;28;20521;-67
2022/02/13 10:43:07;;;;;;;1999.90;999.90;;;;;;;5.55;59.99;163875.94;5019999;28;20080;-67
2022/02/13 10:45:35;;;;;;;1999.90;999.90;;;;;;;5.77;60.23;163934.97;5009317;28;20119;-67
2022/02/13 10:48:04;;;;;;;1999.90;999.90;;;;;;;5.35;59.89;163823.78;5008599;28;20104;-67
2022/02/13 10:50:35;;;;;;;1999.90;999.90;;;;;;;5.39;59.95;163833.38;5017603;28;20073;-67
2022/02/13 10:53:04;;;;;;;1999.90;999.90;;;;;;;5.39;58.68;163834.78;5017746;28;20061;-67
2022/02/13 10:55:32;;;;;;;1999.90;999.90;;;;;;;5.39;58.72;163833.38;5018527;28;20103;-66